Thursday, January 18, 2018, 8:57 PM EST
Back to Local

KMHT, Manchester Airport

Location: Manchester, NH, United States Lat: 42.933
Local Time: 8:57 PM EST ( 1:57 GMT) Lon: -71.433
Time Zone: US/Eastern Elev: 232 ft

Show me the last for .
Show Decoded

2018-01-18 19:53 METAR KMHT 190053Z 32003KT 10SM FEW033 M05/M09 A2990 RMK AO2 SLP147 T10501094 =
2018-01-18 18:53 METAR KMHT 182353Z 30005KT 10SM FEW033 M04/M09 A2990 RMK AO2 SLP144 4/005
                 T10391089 11017 21039 53014 =
2018-01-18 17:53 METAR KMHT 182253Z VRB05KT 10SM FEW033 M03/M09 A2988 RMK AO2 SLP137 T10281089 =
2018-01-18 16:53 METAR KMHT 182153Z 32006KT 10SM FEW033 M03/M09 A2986 RMK AO2 SLP131 T10281089 =
2018-01-18 15:53 METAR KMHT 182053Z 31009KT 10SM FEW030 M02/M09 A2986 RMK AO2 SLP129 T10171089
                 55010 =
2018-01-18 14:53 METAR KMHT 181953Z 30012G17KT 10SM FEW030 M02/M09 A2984 RMK AO2 SLP125 T10221089
                 =
2018-01-18 13:53 METAR KMHT 181853Z 33011KT 10SM FEW030 M02/M09 A2985 RMK AO2 SLP128 T10221089 =
2018-01-18 12:53 METAR KMHT 181753Z 30011G19KT 10SM FEW030 M03/M09 A2989 RMK AO2 SLP139 4/005
                 I6000 T10281094 11028 21106 58025 =
2018-01-18 11:53 METAR KMHT 181653Z 32013KT 10SM FEW030 FEW200 M03/M09 A2991 RMK AO2 SLP148
                 T10331094 =
2018-01-18 10:53 METAR KMHT 181553Z 32013G18KT 10SM FEW030 FEW200 M04/M10 A2994 RMK AO2 SLP157
                 T10441100 =
2018-01-18 09:53 METAR KMHT 181453Z VRB04KT 10SM FEW150 M06/M11 A2996 RMK AO2 SLP165 I3000
                 T10561106 53004 =
2018-01-18 08:53 METAR KMHT 181353Z 33005KT 10SM FEW150 M07/M11 A2995 RMK AO2 SLP160 T10671111 =
2018-01-18 07:53 METAR KMHT 181253Z 33004KT 10SM FEW150 M09/M11 A2995 RMK AO2 SLP162 I1000
                 T10941111 =
2018-01-18 06:53 METAR KMHT 181153Z 00000KT 10SM CLR M09/M11 A2995 RMK AO2 SLP161 4/006 70010
                 I1000 I6000 T10941106 11039 21100 55007 =
2018-01-18 05:53 METAR KMHT 181053Z 00000KT 10SM CLR M08/M10 A2995 RMK AO2 SLP161 T10781100 =
2018-01-18 04:53 METAR KMHT 180953Z 30003KT 10SM CLR M07/M10 A2996 RMK AO2 SLP164 T10721100 =
2018-01-18 03:53 METAR KMHT 180853Z 23004KT 10SM CLR M06/M08 A2997 RMK AO2 SLP168 I3000 T10561083
                 56014 =
2018-01-18 02:53 METAR KMHT 180753Z 15004KT 10SM CLR M08/M09 A2999 RMK AO2 SLP174 I1000 T10781089
                 =
2018-01-18 01:53 METAR KMHT 180653Z 34004KT 10SM CLR M06/M08 A2998 RMK AO2 SLP173 T10611078 =
2018-01-18 00:53 METAR KMHT 180553Z 33004KT 10SM FEW040 M04/M07 A3001 RMK AO2 SLP181 4/006 60000
                 T10391067 11011 21039 58017 =
2018-01-17 23:53 METAR KMHT 180453Z 27005KT 10SM SCT020 BKN040 M02/M04 A3004 RMK AO2 SLP191
                 T10221044 400061022 =
2018-01-17 22:53 METAR KMHT 180353Z 25003KT 10SM BKN020 M01/M03 A3005 RMK AO2 SLP194 T10111033 =
2018-01-17 21:53 METAR KMHT 180253Z 00000KT 10SM OVC025 M01/M03 A3006 RMK AO2 SLP199 60000
                 T10111028 55004 =

Support USWX by starting your Amazon purchase here.